createdAt,value
2022-08-18T00:02:41.719Z,25.42
2022-08-18T00:07:47.035Z,24.47
2022-08-18T00:12:50.696Z,23.87
2022-08-18T00:17:54.437Z,23.40
2022-08-18T00:22:58.221Z,24.07
2022-08-18T00:28:01.427Z,26.34
2022-08-18T00:33:04.754Z,26.58
2022-08-18T00:38:24.861Z,24.97
2022-08-18T00:43:46.482Z,23.96
2022-08-18T00:48:50.668Z,23.32
2022-08-18T00:54:31.892Z,23.92
2022-08-18T00:59:46.941Z,26.32
2022-08-18T01:05:03.933Z,26.44
2022-08-18T01:10:08.361Z,24.75
2022-08-18T01:15:28.443Z,23.73
2022-08-18T01:21:22.163Z,23.04
2022-08-18T01:26:27.711Z,24.11
2022-08-18T01:31:55.275Z,26.34
2022-08-18T01:36:59.559Z,26.27
2022-08-18T01:42:04.981Z,24.59
2022-08-18T01:47:13.029Z,23.61
2022-08-18T01:52:21.874Z,22.96
2022-08-18T01:57:25.590Z,22.44
2022-08-18T02:02:34.257Z,23.20
2022-08-18T02:07:38.365Z,25.63
2022-08-18T02:12:44.047Z,25.94
2022-08-18T02:17:47.819Z,24.30
2022-08-18T02:22:51.775Z,23.29
2022-08-18T02:27:55.074Z,22.69
2022-08-18T02:32:59.624Z,23.40
2022-08-18T02:38:06.048Z,25.75
2022-08-18T02:43:10.742Z,26.05
2022-08-18T02:48:14.179Z,24.45
2022-08-18T02:53:23.918Z,23.45
2022-08-18T02:58:31.770Z,22.77
2022-08-18T03:03:36.996Z,23.41
2022-08-18T03:08:40.609Z,25.65
2022-08-18T03:13:44.130Z,25.88
2022-08-18T03:18:48.291Z,24.30
2022-08-18T03:24:00.395Z,23.30
2022-08-18T03:29:05.022Z,22.62
2022-08-18T03:34:08.941Z,23.31
2022-08-18T03:39:13.849Z,25.64
2022-08-18T03:44:17.609Z,25.85
2022-08-18T03:49:21.166Z,24.16
2022-08-18T03:54:24.445Z,23.01
2022-08-18T03:59:30.836Z,22.28
2022-08-18T04:04:35.362Z,22.95
2022-08-18T04:09:39.805Z,25.19
2022-08-18T04:14:48.438Z,26.23
2022-08-18T04:19:55.021Z,26.07
2022-08-18T04:24:58.268Z,24.42
2022-08-18T04:30:02.664Z,23.46
2022-08-18T04:35:11.160Z,22.86
2022-08-18T04:40:20.283Z,23.50
2022-08-18T04:45:28.270Z,25.82
2022-08-18T04:50:31.516Z,26.23
2022-08-18T04:55:34.890Z,24.84
2022-08-18T05:00:38.147Z,23.99
2022-08-18T05:05:41.322Z,23.51
2022-08-18T05:10:44.643Z,24.26
2022-08-18T05:16:10.023Z,26.79
2022-08-18T05:21:15.895Z,26.66
2022-08-18T05:26:35.719Z,25.42
2022-08-18T05:31:38.923Z,24.73
2022-08-18T05:36:43.899Z,24.36
2022-08-18T05:42:06.556Z,24.15
2022-08-18T05:47:28.744Z,25.22
2022-08-18T05:53:09.330Z,26.61
2022-08-18T05:58:33.636Z,25.56
2022-08-18T06:03:49.193Z,25.15
2022-08-18T06:09:13.586Z,24.88
2022-08-18T06:14:17.409Z,24.70
2022-08-18T06:19:44.699Z,24.56
2022-08-18T06:25:09.312Z,24.38
2022-08-18T06:30:33.414Z,24.39
2022-08-18T06:35:50.629Z,25.78
2022-08-18T06:41:41.721Z,27.33
2022-08-18T06:47:04.666Z,26.45
2022-08-18T06:52:37.137Z,26.10
2022-08-18T06:57:54.546Z,26.06
2022-08-18T07:03:18.371Z,26.08
2022-08-18T07:08:38.471Z,26.19
2022-08-18T07:13:44.881Z,26.40
2022-08-18T07:18:48.254Z,26.50
2022-08-18T07:24:24.146Z,26.63
2022-08-18T07:29:30.562Z,26.73
2022-08-18T07:34:41.367Z,26.75
2022-08-18T07:39:56.663Z,26.85
2022-08-18T07:45:36.256Z,27.02
2022-08-18T07:51:08.586Z,27.33
2022-08-18T07:56:44.965Z,27.59
2022-08-18T08:02:00.922Z,27.79
2022-08-18T08:07:25.473Z,28.04
2022-08-18T08:12:31.840Z,28.24
2022-08-18T08:18:08.934Z,28.47
2022-08-18T08:23:29.074Z,28.68
2022-08-18T08:29:01.746Z,28.83
2022-08-18T08:34:07.835Z,28.99
2022-08-18T08:39:29.175Z,29.15
2022-08-18T08:45:00.140Z,29.31
2022-08-18T08:50:13.365Z,29.55
2022-08-18T08:55:26.952Z,29.69
2022-08-18T09:06:59.680Z,30.14
2022-08-18T09:12:18.126Z,30.34
2022-08-18T09:17:51.216Z,30.50
2022-08-18T09:23:14.092Z,30.68
2022-08-18T09:35:52.101Z,31.26
2022-08-18T09:41:31.391Z,31.49
2022-08-18T09:46:43.865Z,31.70
2022-08-18T09:51:47.251Z,31.96
2022-08-18T10:02:41.803Z,32.28
2022-08-18T10:08:08.148Z,32.45
2022-08-18T10:13:48.899Z,32.76
2022-08-18T10:19:01.602Z,33.00
2022-08-18T10:24:37.985Z,33.12
2022-08-18T10:29:54.443Z,33.19
2022-08-18T10:34:57.990Z,33.33
2022-08-18T10:40:13.115Z,33.54
2022-08-18T10:45:24.525Z,33.85
2022-08-18T10:50:34.104Z,34.14
2022-08-18T10:56:43.663Z,34.38
2022-08-18T11:02:18.670Z,34.61
2022-08-18T11:07:33.876Z,34.90
2022-08-18T11:13:03.100Z,35.05
2022-08-18T11:24:10.114Z,35.11
2022-08-18T11:29:41.915Z,35.27
2022-08-18T11:35:19.297Z,35.38
2022-08-18T11:46:39.108Z,35.04
2022-08-18T11:52:25.024Z,35.15
2022-08-18T11:57:49.600Z,35.65
2022-08-18T12:03:08.658Z,36.07
2022-08-18T12:08:57.962Z,36.08
2022-08-18T12:14:32.184Z,35.98
2022-08-18T12:19:34.517Z,35.96
2022-08-18T12:24:39.449Z,36.04
2022-08-18T12:29:44.461Z,36.14
2022-08-18T12:34:47.649Z,36.29
2022-08-18T12:39:53.345Z,36.43
2022-08-18T12:44:58.159Z,36.43
2022-08-18T12:50:01.689Z,36.73
2022-08-18T12:55:21.413Z,36.95
2022-08-18T13:00:27.746Z,37.12
2022-08-18T13:05:32.397Z,37.46
2022-08-18T13:10:46.706Z,37.72
2022-08-18T13:15:58.019Z,37.82
2022-08-18T13:21:07.192Z,37.65
2022-08-18T13:26:24.453Z,37.55
2022-08-18T13:31:32.875Z,37.61
2022-08-18T13:36:47.875Z,37.64
2022-08-18T13:41:54.466Z,37.81
2022-08-18T13:46:58.590Z,38.05
2022-08-18T13:52:03.324Z,38.07
2022-08-18T13:57:08.797Z,38.12
2022-08-18T14:02:12.846Z,38.18
2022-08-18T14:07:19.182Z,38.24
2022-08-18T14:12:33.387Z,38.32
2022-08-18T14:17:37.292Z,38.47
2022-08-18T14:23:00.704Z,38.75
2022-08-18T14:28:04.644Z,39.03
2022-08-18T14:33:11.632Z,39.31
2022-08-18T14:38:16.495Z,39.51
2022-08-18T14:43:24.977Z,39.72
2022-08-18T14:48:29.391Z,39.84
2022-08-18T14:53:34.698Z,40.01
2022-08-18T14:58:41.058Z,40.21
2022-08-18T15:03:45.803Z,40.37
2022-08-18T15:08:52.463Z,40.35
2022-08-18T15:13:57.536Z,40.10
2022-08-18T15:19:02.671Z,39.76
2022-08-18T15:24:44.417Z,39.25
2022-08-18T15:29:50.971Z,38.65
2022-08-18T15:34:54.135Z,38.36
2022-08-18T15:40:30.130Z,37.99
2022-08-18T15:45:57.822Z,37.58
2022-08-18T15:51:11.855Z,37.37
2022-08-18T15:56:26.443Z,37.36
2022-08-18T16:01:32.365Z,37.21
2022-08-18T16:06:41.067Z,37.02
2022-08-18T16:11:45.234Z,37.06
2022-08-18T16:16:48.541Z,37.06
2022-08-18T16:21:52.674Z,37.18
2022-08-18T16:26:56.493Z,37.36
2022-08-18T16:31:59.929Z,37.42
2022-08-18T16:37:09.343Z,37.44
2022-08-18T16:42:12.989Z,37.59
2022-08-18T16:47:18.591Z,37.75
2022-08-18T16:52:21.868Z,37.75
2022-08-18T16:57:53.239Z,37.61
2022-08-18T17:03:26.955Z,37.29
2022-08-18T17:08:34.238Z,36.93
2022-08-18T17:13:40.358Z,36.60
2022-08-18T17:18:44.737Z,36.16
2022-08-18T17:23:48.892Z,35.69
2022-08-18T17:29:06.054Z,35.24
2022-08-18T17:34:14.176Z,34.79
2022-08-18T17:39:25.838Z,34.30
2022-08-18T17:44:31.656Z,33.86
2022-08-18T17:50:26.955Z,33.43
2022-08-18T17:55:43.390Z,32.93
2022-08-18T18:00:46.903Z,32.38
2022-08-18T18:06:02.945Z,32.00
2022-08-18T18:11:12.109Z,31.53
2022-08-18T18:16:37.240Z,31.06
2022-08-18T18:21:53.583Z,30.56
2022-08-18T18:27:40.345Z,30.31
2022-08-18T18:32:59.299Z,30.05
2022-08-18T18:38:24.852Z,29.82
2022-08-18T18:43:38.434Z,29.57
2022-08-18T18:49:06.289Z,29.34
2022-08-18T18:54:21.271Z,29.11
2022-08-18T19:00:20.432Z,28.93
2022-08-18T19:05:37.752Z,28.74
2022-08-18T19:11:06.027Z,28.55
2022-08-18T19:16:24.620Z,28.40
2022-08-18T19:22:03.536Z,28.28
2022-08-18T19:27:03.028Z,28.15
2022-08-18T19:32:16.416Z,28.03
2022-08-18T19:37:40.939Z,27.93
2022-08-18T19:42:49.568Z,27.84
2022-08-18T19:48:26.251Z,27.75
2022-08-18T19:53:29.450Z,27.60
2022-08-18T19:59:18.340Z,27.47
2022-08-18T20:04:43.810Z,27.33
2022-08-18T20:10:43.491Z,27.23
2022-08-18T20:16:13.946Z,27.13
2022-08-18T20:21:17.080Z,27.04
2022-08-18T20:26:40.169Z,26.94
2022-08-18T20:31:49.417Z,26.79
2022-08-18T20:36:55.297Z,26.69
2022-08-18T20:42:01.602Z,26.60
2022-08-18T20:47:25.928Z,26.52
2022-08-18T20:52:46.033Z,26.43
2022-08-18T20:57:55.614Z,26.33
2022-08-18T21:03:06.792Z,26.24
2022-08-18T21:08:20.038Z,26.10
2022-08-18T21:13:51.237Z,25.91
2022-08-18T21:19:05.054Z,25.80
2022-08-18T21:24:31.845Z,25.71
2022-08-18T21:29:39.191Z,25.61
2022-08-18T21:34:51.747Z,25.54
2022-08-18T21:40:00.205Z,25.47
2022-08-18T21:45:04.203Z,25.39
2022-08-18T21:50:18.522Z,25.26
2022-08-18T21:55:41.342Z,25.10
2022-08-18T22:01:15.188Z,24.90
2022-08-18T22:06:41.022Z,24.68
2022-08-18T22:12:02.851Z,24.38
2022-08-18T22:17:52.218Z,24.15
2022-08-18T22:23:33.351Z,24.07
2022-08-18T22:29:15.076Z,24.09
2022-08-18T22:34:27.768Z,24.14
2022-08-18T22:39:46.423Z,24.13
2022-08-18T22:44:50.468Z,24.08
2022-08-18T22:49:53.912Z,24.03
2022-08-18T22:54:59.123Z,24.06
2022-08-18T23:00:12.376Z,24.06
2022-08-18T23:05:16.557Z,24.09
2022-08-18T23:10:20.654Z,24.12
2022-08-18T23:15:42.099Z,25.25
2022-08-18T23:20:52.279Z,28.10
2022-08-18T23:25:56.903Z,28.51
2022-08-18T23:31:00.017Z,27.03
2022-08-18T23:36:04.926Z,26.15
2022-08-18T23:41:13.733Z,25.59
2022-08-18T23:46:25.698Z,25.17
2022-08-18T23:51:38.192Z,24.79
2022-08-18T23:56:41.877Z,24.56
